sensor_id;sensor_type;location;lat;lon;timestamp;P1;durP1;ratioP1;P2;durP2;ratioP2
14518;SDS011;7346;50.846;4.388;2022-10-20T00:00:22;18.37;;;12.53;;
14518;SDS011;7346;50.846;4.388;2022-10-20T00:02:49;18.77;;;12.33;;
14518;SDS011;7346;50.846;4.388;2022-10-20T00:05:16;18.43;;;12.17;;
14518;SDS011;7346;50.846;4.388;2022-10-20T00:07:47;19.30;;;12.97;;
14518;SDS011;7346;50.846;4.388;2022-10-20T00:10:14;20.13;;;12.57;;
14518;SDS011;7346;50.846;4.388;2022-10-20T00:12:42;19.03;;;12.87;;
14518;SDS011;7346;50.846;4.388;2022-10-20T00:15:10;16.90;;;12.47;;
14518;SDS011;7346;50.846;4.388;2022-10-20T00:17:37;15.00;;;12.23;;
14518;SDS011;7346;50.846;4.388;2022-10-20T00:20:05;15.60;;;12.33;;
14518;SDS011;7346;50.846;4.388;2022-10-20T00:22:32;19.10;;;12.67;;
14518;SDS011;7346;50.846;4.388;2022-10-20T00:24:59;19.10;;;12.53;;
14518;SDS011;7346;50.846;4.388;2022-10-20T00:27:26;22.33;;;13.43;;
14518;SDS011;7346;50.846;4.388;2022-10-20T00:29:53;16.37;;;13.37;;
14518;SDS011;7346;50.846;4.388;2022-10-20T00:32:21;17.93;;;13.07;;
14518;SDS011;7346;50.846;4.388;2022-10-20T00:34:48;18.33;;;13.73;;
14518;SDS011;7346;50.846;4.388;2022-10-20T00:37:15;17.60;;;13.17;;
14518;SDS011;7346;50.846;4.388;2022-10-20T00:39:42;15.07;;;12.40;;
14518;SDS011;7346;50.846;4.388;2022-10-20T00:42:09;19.13;;;13.57;;
14518;SDS011;7346;50.846;4.388;2022-10-20T00:44:47;19.50;;;13.27;;
14518;SDS011;7346;50.846;4.388;2022-10-20T00:47:21;18.60;;;13.60;;
14518;SDS011;7346;50.846;4.388;2022-10-20T00:50:08;23.70;;;13.50;;
14518;SDS011;7346;50.846;4.388;2022-10-20T00:52:37;16.27;;;12.70;;
14518;SDS011;7346;50.846;4.388;2022-10-20T00:55:07;20.30;;;13.83;;
14518;SDS011;7346;50.846;4.388;2022-10-20T00:57:35;19.67;;;14.50;;
14518;SDS011;7346;50.846;4.388;2022-10-20T01:00:04;20.10;;;14.17;;
14518;SDS011;7346;50.846;4.388;2022-10-20T01:02:32;20.73;;;13.60;;
14518;SDS011;7346;50.846;4.388;2022-10-20T01:05:00;20.50;;;14.07;;
14518;SDS011;7346;50.846;4.388;2022-10-20T01:07:28;16.80;;;13.80;;
14518;SDS011;7346;50.846;4.388;2022-10-20T01:09:55;18.33;;;14.10;;
14518;SDS011;7346;50.846;4.388;2022-10-20T01:12:25;20.03;;;14.37;;
14518;SDS011;7346;50.846;4.388;2022-10-20T01:15:00;18.63;;;13.47;;
14518;SDS011;7346;50.846;4.388;2022-10-20T01:17:38;20.47;;;14.43;;
14518;SDS011;7346;50.846;4.388;2022-10-20T01:20:26;20.53;;;14.37;;
14518;SDS011;7346;50.846;4.388;2022-10-20T01:29:17;19.67;;;14.30;;
14518;SDS011;7346;50.846;4.388;2022-10-20T01:31:49;19.27;;;14.20;;
14518;SDS011;7346;50.846;4.388;2022-10-20T01:34:26;20.07;;;13.50;;
14518;SDS011;7346;50.846;4.388;2022-10-20T01:36:58;19.53;;;13.67;;
14518;SDS011;7346;50.846;4.388;2022-10-20T01:39:30;16.87;;;13.60;;
14518;SDS011;7346;50.846;4.388;2022-10-20T01:42:02;20.10;;;13.83;;
14518;SDS011;7346;50.846;4.388;2022-10-20T01:44:34;20.37;;;14.10;;
14518;SDS011;7346;50.846;4.388;2022-10-20T01:47:03;17.37;;;14.17;;
14518;SDS011;7346;50.846;4.388;2022-10-20T01:49:32;19.47;;;14.13;;
14518;SDS011;7346;50.846;4.388;2022-10-20T01:51:59;19.53;;;13.40;;
14518;SDS011;7346;50.846;4.388;2022-10-20T01:54:27;19.67;;;14.77;;
14518;SDS011;7346;50.846;4.388;2022-10-20T01:57:06;21.73;;;14.27;;
14518;SDS011;7346;50.846;4.388;2022-10-20T01:59:51;17.07;;;14.10;;
14518;SDS011;7346;50.846;4.388;2022-10-20T02:02:31;17.10;;;13.70;;
14518;SDS011;7346;50.846;4.388;2022-10-20T02:05:17;18.83;;;14.57;;
14518;SDS011;7346;50.846;4.388;2022-10-20T02:07:58;16.23;;;13.00;;
14518;SDS011;7346;50.846;4.388;2022-10-20T02:10:31;22.87;;;14.73;;
14518;SDS011;7346;50.846;4.388;2022-10-20T02:13:05;18.93;;;13.63;;
14518;SDS011;7346;50.846;4.388;2022-10-20T02:15:36;19.57;;;13.80;;
14518;SDS011;7346;50.846;4.388;2022-10-20T02:18:06;19.53;;;13.70;;
14518;SDS011;7346;50.846;4.388;2022-10-20T02:20:36;22.97;;;13.83;;
14518;SDS011;7346;50.846;4.388;2022-10-20T02:23:05;19.93;;;13.60;;
14518;SDS011;7346;50.846;4.388;2022-10-20T02:25:32;18.90;;;13.40;;
14518;SDS011;7346;50.846;4.388;2022-10-20T02:27:59;17.37;;;13.67;;
14518;SDS011;7346;50.846;4.388;2022-10-20T02:30:29;17.07;;;14.00;;
14518;SDS011;7346;50.846;4.388;2022-10-20T02:32:58;16.20;;;13.20;;
14518;SDS011;7346;50.846;4.388;2022-10-20T02:35:29;17.60;;;13.90;;
14518;SDS011;7346;50.846;4.388;2022-10-20T02:37:57;16.93;;;12.73;;
14518;SDS011;7346;50.846;4.388;2022-10-20T02:40:25;17.67;;;13.63;;
14518;SDS011;7346;50.846;4.388;2022-10-20T02:42:52;17.80;;;13.13;;
14518;SDS011;7346;50.846;4.388;2022-10-20T02:45:19;17.63;;;13.67;;
14518;SDS011;7346;50.846;4.388;2022-10-20T02:47:46;24.93;;;13.20;;
14518;SDS011;7346;50.846;4.388;2022-10-20T02:50:14;16.03;;;12.10;;
14518;SDS011;7346;50.846;4.388;2022-10-20T02:52:42;19.83;;;12.57;;
14518;SDS011;7346;50.846;4.388;2022-10-20T02:55:09;17.33;;;12.23;;
14518;SDS011;7346;50.846;4.388;2022-10-20T02:57:36;17.10;;;13.37;;
14518;SDS011;7346;50.846;4.388;2022-10-20T03:00:03;15.10;;;12.43;;
14518;SDS011;7346;50.846;4.388;2022-10-20T03:02:31;19.27;;;12.83;;
14518;SDS011;7346;50.846;4.388;2022-10-20T03:04:58;17.10;;;13.37;;
14518;SDS011;7346;50.846;4.388;2022-10-20T03:07:27;18.07;;;12.30;;
14518;SDS011;7346;50.846;4.388;2022-10-20T03:09:54;14.73;;;11.83;;
14518;SDS011;7346;50.846;4.388;2022-10-20T03:12:20;17.27;;;12.67;;
14518;SDS011;7346;50.846;4.388;2022-10-20T03:14:47;16.27;;;11.93;;
14518;SDS011;7346;50.846;4.388;2022-10-20T03:17:15;18.43;;;11.93;;
14518;SDS011;7346;50.846;4.388;2022-10-20T03:19:41;17.00;;;11.97;;
14518;SDS011;7346;50.846;4.388;2022-10-20T03:22:08;13.93;;;11.93;;
14518;SDS011;7346;50.846;4.388;2022-10-20T03:24:37;15.03;;;12.53;;
14518;SDS011;7346;50.846;4.388;2022-10-20T03:27:04;14.70;;;12.17;;
14518;SDS011;7346;50.846;4.388;2022-10-20T03:29:31;17.73;;;11.97;;
14518;SDS011;7346;50.846;4.388;2022-10-20T03:31:58;15.37;;;11.53;;
14518;SDS011;7346;50.846;4.388;2022-10-20T03:34:27;16.53;;;10.83;;
14518;SDS011;7346;50.846;4.388;2022-10-20T03:36:54;16.60;;;11.63;;
14518;SDS011;7346;50.846;4.388;2022-10-20T03:39:21;14.80;;;10.83;;
14518;SDS011;7346;50.846;4.388;2022-10-20T03:41:49;16.33;;;11.93;;
14518;SDS011;7346;50.846;4.388;2022-10-20T03:44:21;16.37;;;10.70;;
14518;SDS011;7346;50.846;4.388;2022-10-20T03:46:48;15.10;;;11.57;;
14518;SDS011;7346;50.846;4.388;2022-10-20T03:49:15;16.20;;;11.03;;
14518;SDS011;7346;50.846;4.388;2022-10-20T03:51:42;15.77;;;11.97;;
14518;SDS011;7346;50.846;4.388;2022-10-20T03:54:09;14.53;;;10.87;;
14518;SDS011;7346;50.846;4.388;2022-10-20T03:56:37;12.83;;;10.87;;
14518;SDS011;7346;50.846;4.388;2022-10-20T03:59:07;13.43;;;10.53;;
14518;SDS011;7346;50.846;4.388;2022-10-20T04:01:34;14.20;;;10.77;;
14518;SDS011;7346;50.846;4.388;2022-10-20T04:04:08;13.07;;;10.40;;
14518;SDS011;7346;50.846;4.388;2022-10-20T04:06:37;13.47;;;10.70;;
14518;SDS011;7346;50.846;4.388;2022-10-20T04:09:04;17.23;;;11.00;;
14518;SDS011;7346;50.846;4.388;2022-10-20T04:11:31;13.90;;;10.57;;
14518;SDS011;7346;50.846;4.388;2022-10-20T04:13:58;14.87;;;11.07;;
14518;SDS011;7346;50.846;4.388;2022-10-20T04:16:26;21.13;;;12.50;;
14518;SDS011;7346;50.846;4.388;2022-10-20T04:18:53;18.80;;;10.97;;
14518;SDS011;7346;50.846;4.388;2022-10-20T04:21:20;16.57;;;11.13;;
14518;SDS011;7346;50.846;4.388;2022-10-20T04:23:47;14.97;;;11.53;;
14518;SDS011;7346;50.846;4.388;2022-10-20T04:26:14;15.53;;;11.47;;
14518;SDS011;7346;50.846;4.388;2022-10-20T04:28:42;14.90;;;11.23;;
14518;SDS011;7346;50.846;4.388;2022-10-20T04:31:09;11.97;;;10.70;;
14518;SDS011;7346;50.846;4.388;2022-10-20T04:33:37;17.43;;;11.60;;
14518;SDS011;7346;50.846;4.388;2022-10-20T04:36:05;14.47;;;11.90;;
14518;SDS011;7346;50.846;4.388;2022-10-20T04:38:33;16.03;;;11.60;;
14518;SDS011;7346;50.846;4.388;2022-10-20T04:41:02;16.63;;;11.80;;
14518;SDS011;7346;50.846;4.388;2022-10-20T04:43:29;16.33;;;11.93;;
14518;SDS011;7346;50.846;4.388;2022-10-20T04:45:58;12.70;;;11.17;;
14518;SDS011;7346;50.846;4.388;2022-10-20T04:48:26;12.97;;;11.07;;
14518;SDS011;7346;50.846;4.388;2022-10-20T04:50:59;17.90;;;10.50;;
14518;SDS011;7346;50.846;4.388;2022-10-20T04:53:27;19.33;;;11.17;;
14518;SDS011;7346;50.846;4.388;2022-10-20T04:55:54;16.40;;;10.40;;
14518;SDS011;7346;50.846;4.388;2022-10-20T04:58:21;13.67;;;10.30;;
14518;SDS011;7346;50.846;4.388;2022-10-20T05:00:49;14.50;;;10.57;;
14518;SDS011;7346;50.846;4.388;2022-10-20T05:03:16;16.43;;;11.50;;
14518;SDS011;7346;50.846;4.388;2022-10-20T05:05:44;14.03;;;10.37;;
14518;SDS011;7346;50.846;4.388;2022-10-20T05:08:14;15.23;;;10.53;;
14518;SDS011;7346;50.846;4.388;2022-10-20T05:10:41;21.07;;;10.93;;
14518;SDS011;7346;50.846;4.388;2022-10-20T05:13:08;13.43;;;9.93;;
14518;SDS011;7346;50.846;4.388;2022-10-20T05:15:35;17.37;;;9.70;;
14518;SDS011;7346;50.846;4.388;2022-10-20T05:18:05;12.73;;;9.43;;
14518;SDS011;7346;50.846;4.388;2022-10-20T05:20:32;12.57;;;9.93;;
14518;SDS011;7346;50.846;4.388;2022-10-20T05:22:59;13.47;;;9.77;;
14518;SDS011;7346;50.846;4.388;2022-10-20T05:25:27;12.13;;;9.67;;
14518;SDS011;7346;50.846;4.388;2022-10-20T05:28:03;13.20;;;9.53;;
14518;SDS011;7346;50.846;4.388;2022-10-20T05:30:33;12.77;;;9.27;;
14518;SDS011;7346;50.846;4.388;2022-10-20T05:33:03;17.43;;;9.73;;
14518;SDS011;7346;50.846;4.388;2022-10-20T05:35:30;12.87;;;10.20;;
14518;SDS011;7346;50.846;4.388;2022-10-20T05:37:57;12.30;;;8.53;;
14518;SDS011;7346;50.846;4.388;2022-10-20T05:40:24;14.87;;;9.63;;
14518;SDS011;7346;50.846;4.388;2022-10-20T05:42:53;13.83;;;8.77;;
14518;SDS011;7346;50.846;4.388;2022-10-20T05:45:21;12.83;;;8.40;;
14518;SDS011;7346;50.846;4.388;2022-10-20T05:47:48;15.27;;;9.13;;
14518;SDS011;7346;50.846;4.388;2022-10-20T05:50:15;12.87;;;8.17;;
14518;SDS011;7346;50.846;4.388;2022-10-20T05:52:45;9.43;;;7.63;;
14518;SDS011;7346;50.846;4.388;2022-10-20T05:55:12;11.60;;;7.93;;
14518;SDS011;7346;50.846;4.388;2022-10-20T05:57:39;10.20;;;7.97;;
14518;SDS011;7346;50.846;4.388;2022-10-20T06:00:09;10.47;;;8.60;;
14518;SDS011;7346;50.846;4.388;2022-10-20T06:02:36;13.47;;;8.17;;
14518;SDS011;7346;50.846;4.388;2022-10-20T06:05:03;9.40;;;7.67;;
14518;SDS011;7346;50.846;4.388;2022-10-20T06:07:33;7.97;;;6.83;;
14518;SDS011;7346;50.846;4.388;2022-10-20T06:10:00;9.93;;;7.60;;
14518;SDS011;7346;50.846;4.388;2022-10-20T06:12:27;10.37;;;7.30;;
14518;SDS011;7346;50.846;4.388;2022-10-20T06:14:54;11.97;;;7.67;;
14518;SDS011;7346;50.846;4.388;2022-10-20T06:17:22;9.43;;;8.07;;
14518;SDS011;7346;50.846;4.388;2022-10-20T06:19:49;13.07;;;8.00;;
14518;SDS011;7346;50.846;4.388;2022-10-20T06:22:17;12.07;;;7.70;;
14518;SDS011;7346;50.846;4.388;2022-10-20T06:24:43;12.17;;;7.60;;
14518;SDS011;7346;50.846;4.388;2022-10-20T06:27:10;13.60;;;7.97;;
14518;SDS011;7346;50.846;4.388;2022-10-20T06:29:37;10.40;;;7.50;;
14518;SDS011;7346;50.846;4.388;2022-10-20T06:32:04;9.60;;;6.93;;
14518;SDS011;7346;50.846;4.388;2022-10-20T06:34:32;9.67;;;7.93;;
14518;SDS011;7346;50.846;4.388;2022-10-20T06:36:59;11.67;;;7.60;;
14518;SDS011;7346;50.846;4.388;2022-10-20T06:39:29;9.87;;;7.03;;
14518;SDS011;7346;50.846;4.388;2022-10-20T06:41:56;12.83;;;8.20;;
14518;SDS011;7346;50.846;4.388;2022-10-20T06:44:23;14.70;;;7.23;;
14518;SDS011;7346;50.846;4.388;2022-10-20T06:46:54;11.80;;;6.87;;
14518;SDS011;7346;50.846;4.388;2022-10-20T06:49:21;10.80;;;7.10;;
14518;SDS011;7346;50.846;4.388;2022-10-20T06:51:50;11.47;;;8.00;;
14518;SDS011;7346;50.846;4.388;2022-10-20T06:54:17;13.60;;;7.23;;
14518;SDS011;7346;50.846;4.388;2022-10-20T06:56:45;10.30;;;8.87;;
14518;SDS011;7346;50.846;4.388;2022-10-20T06:59:15;13.37;;;8.47;;
14518;SDS011;7346;50.846;4.388;2022-10-20T07:01:42;20.67;;;8.13;;
14518;SDS011;7346;50.846;4.388;2022-10-20T07:04:09;16.43;;;9.87;;
14518;SDS011;7346;50.846;4.388;2022-10-20T07:06:39;13.53;;;6.93;;
14518;SDS011;7346;50.846;4.388;2022-10-20T07:09:10;10.80;;;7.60;;
14518;SDS011;7346;50.846;4.388;2022-10-20T07:11:38;13.57;;;7.87;;
14518;SDS011;7346;50.846;4.388;2022-10-20T07:14:06;17.63;;;7.83;;
14518;SDS011;7346;50.846;4.388;2022-10-20T07:16:34;9.67;;;7.37;;
14518;SDS011;7346;50.846;4.388;2022-10-20T07:19:02;10.20;;;7.00;;
14518;SDS011;7346;50.846;4.388;2022-10-20T07:21:30;11.37;;;6.63;;
14518;SDS011;7346;50.846;4.388;2022-10-20T07:23:59;11.67;;;6.67;;
14518;SDS011;7346;50.846;4.388;2022-10-20T07:26:28;9.17;;;6.60;;
14518;SDS011;7346;50.846;4.388;2022-10-20T07:29:00;10.70;;;6.60;;
14518;SDS011;7346;50.846;4.388;2022-10-20T07:31:28;13.23;;;6.63;;
14518;SDS011;7346;50.846;4.388;2022-10-20T07:33:59;11.30;;;6.47;;
14518;SDS011;7346;50.846;4.388;2022-10-20T07:36:27;13.40;;;6.70;;
14518;SDS011;7346;50.846;4.388;2022-10-20T07:38:56;10.03;;;6.40;;
14518;SDS011;7346;50.846;4.388;2022-10-20T07:41:30;11.97;;;7.10;;
14518;SDS011;7346;50.846;4.388;2022-10-20T07:43:59;14.13;;;6.53;;
14518;SDS011;7346;50.846;4.388;2022-10-20T07:46:26;10.33;;;7.13;;
14518;SDS011;7346;50.846;4.388;2022-10-20T07:48:53;12.03;;;7.07;;
14518;SDS011;7346;50.846;4.388;2022-10-20T07:51:25;15.93;;;6.50;;
14518;SDS011;7346;50.846;4.388;2022-10-20T07:53:55;16.63;;;6.73;;
14518;SDS011;7346;50.846;4.388;2022-10-20T07:56:23;10.73;;;6.60;;
14518;SDS011;7346;50.846;4.388;2022-10-20T07:58:54;14.13;;;6.87;;
14518;SDS011;7346;50.846;4.388;2022-10-20T08:01:21;15.37;;;7.07;;
14518;SDS011;7346;50.846;4.388;2022-10-20T08:03:48;14.87;;;7.07;;
14518;SDS011;7346;50.846;4.388;2022-10-20T08:06:23;11.60;;;6.90;;
14518;SDS011;7346;50.846;4.388;2022-10-20T08:08:50;14.23;;;6.77;;
14518;SDS011;7346;50.846;4.388;2022-10-20T08:11:17;14.07;;;7.00;;
14518;SDS011;7346;50.846;4.388;2022-10-20T08:13:44;22.13;;;7.30;;
14518;SDS011;7346;50.846;4.388;2022-10-20T08:16:20;13.23;;;7.40;;
14518;SDS011;7346;50.846;4.388;2022-10-20T08:18:48;15.17;;;7.30;;
14518;SDS011;7346;50.846;4.388;2022-10-20T08:21:16;13.13;;;6.57;;
14518;SDS011;7346;50.846;4.388;2022-10-20T08:23:49;19.15;;;7.45;;
14518;SDS011;7346;50.846;4.388;2022-10-20T08:26:17;19.85;;;8.63;;
14518;SDS011;7346;50.846;4.388;2022-10-20T08:28:45;14.60;;;6.75;;
14518;SDS011;7346;50.846;4.388;2022-10-20T08:31:13;18.55;;;8.15;;
14518;SDS011;7346;50.846;4.388;2022-10-20T08:33:40;15.77;;;7.57;;
14518;SDS011;7346;50.846;4.388;2022-10-20T08:36:08;18.48;;;8.43;;
14518;SDS011;7346;50.846;4.388;2022-10-20T08:38:37;15.50;;;8.32;;
14518;SDS011;7346;50.846;4.388;2022-10-20T08:41:05;11.75;;;7.72;;
14518;SDS011;7346;50.846;4.388;2022-10-20T08:43:39;14.60;;;8.35;;
14518;SDS011;7346;50.846;4.388;2022-10-20T08:46:08;11.98;;;8.90;;
14518;SDS011;7346;50.846;4.388;2022-10-20T08:48:39;17.67;;;8.98;;
14518;SDS011;7346;50.846;4.388;2022-10-20T08:51:09;16.83;;;9.15;;
14518;SDS011;7346;50.846;4.388;2022-10-20T08:53:41;15.45;;;8.85;;
14518;SDS011;7346;50.846;4.388;2022-10-20T08:56:09;16.97;;;8.87;;
14518;SDS011;7346;50.846;4.388;2022-10-20T08:58:40;14.07;;;8.82;;
14518;SDS011;7346;50.846;4.388;2022-10-20T09:01:13;15.95;;;9.50;;
14518;SDS011;7346;50.846;4.388;2022-10-20T09:03:45;17.75;;;11.93;;
14518;SDS011;7346;50.846;4.388;2022-10-20T09:06:17;21.75;;;12.07;;
14518;SDS011;7346;50.846;4.388;2022-10-20T09:08:44;15.73;;;9.68;;
14518;SDS011;7346;50.846;4.388;2022-10-20T09:11:13;21.00;;;9.98;;
14518;SDS011;7346;50.846;4.388;2022-10-20T09:13:43;19.05;;;9.75;;
14518;SDS011;7346;50.846;4.388;2022-10-20T09:16:12;18.67;;;9.73;;
14518;SDS011;7346;50.846;4.388;2022-10-20T09:18:43;19.00;;;9.73;;
14518;SDS011;7346;50.846;4.388;2022-10-20T09:21:16;17.67;;;10.00;;
14518;SDS011;7346;50.846;4.388;2022-10-20T09:23:46;22.80;;;10.20;;
14518;SDS011;7346;50.846;4.388;2022-10-20T09:26:17;18.73;;;10.82;;
14518;SDS011;7346;50.846;4.388;2022-10-20T09:28:46;18.75;;;11.40;;
14518;SDS011;7346;50.846;4.388;2022-10-20T09:31:21;16.90;;;10.93;;
14518;SDS011;7346;50.846;4.388;2022-10-20T09:33:57;19.37;;;10.77;;
14518;SDS011;7346;50.846;4.388;2022-10-20T09:36:24;16.70;;;11.20;;
14518;SDS011;7346;50.846;4.388;2022-10-20T09:38:56;16.10;;;11.05;;
14518;SDS011;7346;50.846;4.388;2022-10-20T09:41:27;19.80;;;11.50;;
14518;SDS011;7346;50.846;4.388;2022-10-20T09:43:57;19.10;;;10.63;;
14518;SDS011;7346;50.846;4.388;2022-10-20T09:46:26;17.10;;;10.50;;
14518;SDS011;7346;50.846;4.388;2022-10-20T09:48:56;19.50;;;11.10;;
14518;SDS011;7346;50.846;4.388;2022-10-20T09:51:24;24.17;;;11.00;;
14518;SDS011;7346;50.846;4.388;2022-10-20T09:53:54;14.20;;;10.93;;
14518;SDS011;7346;50.846;4.388;2022-10-20T09:56:24;16.50;;;10.67;;
14518;SDS011;7346;50.846;4.388;2022-10-20T09:58:53;21.15;;;11.82;;
14518;SDS011;7346;50.846;4.388;2022-10-20T10:01:22;17.87;;;11.37;;
14518;SDS011;7346;50.846;4.388;2022-10-20T10:04:10;17.83;;;11.00;;
14518;SDS011;7346;50.846;4.388;2022-10-20T10:06:56;15.70;;;10.70;;
14518;SDS011;7346;50.846;4.388;2022-10-20T10:09:27;17.63;;;11.15;;
14518;SDS011;7346;50.846;4.388;2022-10-20T10:11:58;14.90;;;10.70;;
14518;SDS011;7346;50.846;4.388;2022-10-20T10:14:30;19.42;;;10.00;;
14518;SDS011;7346;50.846;4.388;2022-10-20T10:17:00;14.73;;;10.05;;
14518;SDS011;7346;50.846;4.388;2022-10-20T10:22:35;16.00;;;9.27;;
14518;SDS011;7346;50.846;4.388;2022-10-20T10:25:05;13.77;;;9.30;;
14518;SDS011;7346;50.846;4.388;2022-10-20T10:27:33;13.27;;;9.55;;
14518;SDS011;7346;50.846;4.388;2022-10-20T10:30:18;19.10;;;9.40;;
14518;SDS011;7346;50.846;4.388;2022-10-20T10:32:53;15.68;;;8.93;;
14518;SDS011;7346;50.846;4.388;2022-10-20T10:35:22;15.98;;;8.95;;
14518;SDS011;7346;50.846;4.388;2022-10-20T10:37:52;14.05;;;9.55;;
14518;SDS011;7346;50.846;4.388;2022-10-20T10:40:21;18.88;;;9.43;;
14518;SDS011;7346;50.846;4.388;2022-10-20T10:45:55;15.73;;;11.60;;
14518;SDS011;7346;50.846;4.388;2022-10-20T10:48:27;15.57;;;8.73;;
14518;SDS011;7346;50.846;4.388;2022-10-20T10:51:17;12.43;;;8.10;;
14518;SDS011;7346;50.846;4.388;2022-10-20T10:53:56;12.80;;;7.88;;
14518;SDS011;7346;50.846;4.388;2022-10-20T10:56:37;17.25;;;9.45;;
14518;SDS011;7346;50.846;4.388;2022-10-20T10:59:11;11.88;;;7.50;;
14518;SDS011;7346;50.846;4.388;2022-10-20T11:01:59;13.23;;;8.52;;
14518;SDS011;7346;50.846;4.388;2022-10-20T11:07:50;17.20;;;8.20;;
14518;SDS011;7346;50.846;4.388;2022-10-20T11:10:25;14.35;;;7.38;;
14518;SDS011;7346;50.846;4.388;2022-10-20T11:15:54;10.57;;;7.32;;
14518;SDS011;7346;50.846;4.388;2022-10-20T11:18:39;11.80;;;6.93;;
14518;SDS011;7346;50.846;4.388;2022-10-20T11:21:21;12.07;;;7.22;;
14518;SDS011;7346;50.846;4.388;2022-10-20T11:23:58;9.32;;;6.60;;
14518;SDS011;7346;50.846;4.388;2022-10-20T11:26:32;15.20;;;6.78;;
14518;SDS011;7346;50.846;4.388;2022-10-20T11:29:02;10.65;;;6.57;;
14518;SDS011;7346;50.846;4.388;2022-10-20T11:31:32;10.52;;;6.05;;
14518;SDS011;7346;50.846;4.388;2022-10-20T11:34:03;14.27;;;6.50;;
14518;SDS011;7346;50.846;4.388;2022-10-20T11:36:33;13.60;;;6.40;;
14518;SDS011;7346;50.846;4.388;2022-10-20T11:39:12;13.20;;;5.57;;
14518;SDS011;7346;50.846;4.388;2022-10-20T11:41:43;15.80;;;5.60;;
14518;SDS011;7346;50.846;4.388;2022-10-20T11:44:13;11.98;;;5.28;;
14518;SDS011;7346;50.846;4.388;2022-10-20T11:46:45;10.05;;;5.32;;
14518;SDS011;7346;50.846;4.388;2022-10-20T11:49:15;9.18;;;5.22;;
14518;SDS011;7346;50.846;4.388;2022-10-20T11:51:48;9.15;;;5.15;;
14518;SDS011;7346;50.846;4.388;2022-10-20T11:54:53;9.27;;;4.38;;
14518;SDS011;7346;50.846;4.388;2022-10-20T11:57:43;8.77;;;4.35;;
14518;SDS011;7346;50.846;4.388;2022-10-20T12:09:25;10.07;;;3.95;;
14518;SDS011;7346;50.846;4.388;2022-10-20T12:12:07;9.70;;;3.90;;
14518;SDS011;7346;50.846;4.388;2022-10-20T12:14:40;8.70;;;3.88;;
14518;SDS011;7346;50.846;4.388;2022-10-20T12:17:13;9.32;;;4.20;;
14518;SDS011;7346;50.846;4.388;2022-10-20T12:22:54;9.30;;;3.65;;
14518;SDS011;7346;50.846;4.388;2022-10-20T12:25:36;7.65;;;3.67;;
14518;SDS011;7346;50.846;4.388;2022-10-20T12:31:07;8.55;;;3.17;;
14518;SDS011;7346;50.846;4.388;2022-10-20T12:36:27;7.95;;;3.33;;
14518;SDS011;7346;50.846;4.388;2022-10-20T12:39:17;9.05;;;3.33;;
14518;SDS011;7346;50.846;4.388;2022-10-20T12:41:55;11.80;;;3.17;;
14518;SDS011;7346;50.846;4.388;2022-10-20T12:44:26;7.22;;;2.90;;
14518;SDS011;7346;50.846;4.388;2022-10-20T12:46:56;7.25;;;2.75;;
14518;SDS011;7346;50.846;4.388;2022-10-20T12:49:30;10.20;;;2.65;;
14518;SDS011;7346;50.846;4.388;2022-10-20T12:51:59;4.60;;;2.33;;
14518;SDS011;7346;50.846;4.388;2022-10-20T12:54:28;5.90;;;2.58;;
14518;SDS011;7346;50.846;4.388;2022-10-20T12:57:01;7.10;;;2.80;;
14518;SDS011;7346;50.846;4.388;2022-10-20T13:14:22;4.78;;;2.00;;
14518;SDS011;7346;50.846;4.388;2022-10-20T13:17:00;6.03;;;2.40;;
14518;SDS011;7346;50.846;4.388;2022-10-20T13:19:33;5.85;;;2.15;;
14518;SDS011;7346;50.846;4.388;2022-10-20T13:22:30;5.65;;;2.60;;
14518;SDS011;7346;50.846;4.388;2022-10-20T13:25:02;5.55;;;2.50;;
14518;SDS011;7346;50.846;4.388;2022-10-20T13:27:39;5.18;;;2.50;;
14518;SDS011;7346;50.846;4.388;2022-10-20T13:30:06;7.03;;;2.15;;
14518;SDS011;7346;50.846;4.388;2022-10-20T13:32:40;11.55;;;2.53;;
14518;SDS011;7346;50.846;4.388;2022-10-20T13:35:17;7.40;;;2.10;;
14518;SDS011;7346;50.846;4.388;2022-10-20T13:37:52;5.18;;;2.15;;
14518;SDS011;7346;50.846;4.388;2022-10-20T13:40:28;5.18;;;2.53;;
14518;SDS011;7346;50.846;4.388;2022-10-20T13:43:07;5.50;;;2.20;;
14518;SDS011;7346;50.846;4.388;2022-10-20T13:45:56;3.22;;;2.05;;
14518;SDS011;7346;50.846;4.388;2022-10-20T13:48:39;6.35;;;2.20;;
14518;SDS011;7346;50.846;4.388;2022-10-20T13:51:18;8.75;;;2.40;;
14518;SDS011;7346;50.846;4.388;2022-10-20T13:53:50;4.95;;;1.88;;
14518;SDS011;7346;50.846;4.388;2022-10-20T13:56:24;6.15;;;2.20;;
14518;SDS011;7346;50.846;4.388;2022-10-20T13:58:59;6.03;;;2.20;;
14518;SDS011;7346;50.846;4.388;2022-10-20T14:01:28;5.38;;;2.20;;
14518;SDS011;7346;50.846;4.388;2022-10-20T14:03:58;4.72;;;2.00;;
14518;SDS011;7346;50.846;4.388;2022-10-20T14:06:28;6.03;;;1.90;;
14518;SDS011;7346;50.846;4.388;2022-10-20T14:08:56;4.32;;;2.10;;
14518;SDS011;7346;50.846;4.388;2022-10-20T14:11:28;6.68;;;2.20;;
14518;SDS011;7346;50.846;4.388;2022-10-20T14:13:56;6.57;;;2.10;;
14518;SDS011;7346;50.846;4.388;2022-10-20T14:16:26;12.27;;;1.88;;
14518;SDS011;7346;50.846;4.388;2022-10-20T14:19:00;5.45;;;2.00;;
14518;SDS011;7346;50.846;4.388;2022-10-20T14:21:29;4.72;;;1.90;;
14518;SDS011;7346;50.846;4.388;2022-10-20T14:24:05;4.68;;;1.85;;
14518;SDS011;7346;50.846;4.388;2022-10-20T14:26:37;6.00;;;2.00;;
14518;SDS011;7346;50.846;4.388;2022-10-20T14:29:08;6.43;;;2.35;;
14518;SDS011;7346;50.846;4.388;2022-10-20T14:31:37;5.82;;;2.42;;
14518;SDS011;7346;50.846;4.388;2022-10-20T14:34:14;8.23;;;2.35;;
14518;SDS011;7346;50.846;4.388;2022-10-20T14:36:45;5.80;;;2.30;;
14518;SDS011;7346;50.846;4.388;2022-10-20T14:39:19;4.88;;;2.10;;
14518;SDS011;7346;50.846;4.388;2022-10-20T14:41:51;9.15;;;2.00;;
14518;SDS011;7346;50.846;4.388;2022-10-20T14:44:22;7.63;;;2.90;;
14518;SDS011;7346;50.846;4.388;2022-10-20T14:46:51;3.60;;;1.98;;
14518;SDS011;7346;50.846;4.388;2022-10-20T14:49:39;5.97;;;1.92;;
14518;SDS011;7346;50.846;4.388;2022-10-20T14:52:38;8.48;;;2.25;;
14518;SDS011;7346;50.846;4.388;2022-10-20T14:55:25;8.98;;;2.55;;
14518;SDS011;7346;50.846;4.388;2022-10-20T14:57:55;7.22;;;2.30;;
14518;SDS011;7346;50.846;4.388;2022-10-20T15:00:30;10.77;;;2.30;;
14518;SDS011;7346;50.846;4.388;2022-10-20T15:02:59;9.45;;;2.20;;
14518;SDS011;7346;50.846;4.388;2022-10-20T15:05:36;4.38;;;1.80;;
14518;SDS011;7346;50.846;4.388;2022-10-20T15:11:01;9.07;;;2.60;;
14518;SDS011;7346;50.846;4.388;2022-10-20T15:13:48;8.18;;;2.20;;
14518;SDS011;7346;50.846;4.388;2022-10-20T15:17:27;5.38;;;1.92;;
14518;SDS011;7346;50.846;4.388;2022-10-20T15:19:42;5.68;;;1.85;;
14518;SDS011;7346;50.846;4.388;2022-10-20T15:22:10;6.22;;;2.38;;
14518;SDS011;7346;50.846;4.388;2022-10-20T15:24:40;9.95;;;2.58;;
14518;SDS011;7346;50.846;4.388;2022-10-20T15:27:09;10.57;;;3.17;;
14518;SDS011;7346;50.846;4.388;2022-10-20T15:29:43;8.10;;;2.40;;
14518;SDS011;7346;50.846;4.388;2022-10-20T15:32:13;10.50;;;3.13;;
14518;SDS011;7346;50.846;4.388;2022-10-20T15:34:40;8.02;;;2.90;;
14518;SDS011;7346;50.846;4.388;2022-10-20T15:37:07;4.88;;;1.90;;
14518;SDS011;7346;50.846;4.388;2022-10-20T15:39:36;8.38;;;2.38;;
14518;SDS011;7346;50.846;4.388;2022-10-20T15:42:03;8.40;;;2.10;;
14518;SDS011;7346;50.846;4.388;2022-10-20T15:44:35;5.07;;;2.00;;
14518;SDS011;7346;50.846;4.388;2022-10-20T15:47:02;5.57;;;2.20;;
14518;SDS011;7346;50.846;4.388;2022-10-20T15:49:29;4.97;;;2.10;;
14518;SDS011;7346;50.846;4.388;2022-10-20T15:51:55;6.57;;;2.30;;
14518;SDS011;7346;50.846;4.388;2022-10-20T15:54:23;9.88;;;2.60;;
14518;SDS011;7346;50.846;4.388;2022-10-20T15:56:53;6.18;;;2.22;;
14518;SDS011;7346;50.846;4.388;2022-10-20T15:59:21;6.10;;;2.67;;
14518;SDS011;7346;50.846;4.388;2022-10-20T16:01:56;6.18;;;2.60;;